Terminal Aerodrome Forecast
Issued by NWS Austin/San Antonio, TX

Home | Current Version | Previous Version | Text Only | Print | Product List | Glossary On
Versions: 1 2 3 4 5 6 7 8 9 10 11 12 13 14 15 16 17 18 19 20 21 22
000
FTUS44 KEWX 041731
TAFDRT
TAF
KDRT 041731Z 0418/0518 31007KT P6SM OVC013
     FM042100 34007KT P6SM OVC025
     FM050200 34015G25KT 6SM -SHRA OVC010
     FM050600 34020G30KT P6SM OVC025
     FM051600 33014G24KT P6SM OVC060=

USA.gov is the U.S. government's official web portal to all federal, state and local government web resources and services.